Time;durP1;ratioP1;P1;durP2;ratioP2;P2;SDS_P1;SDS_P2;PMS_P1;PMS_P2;Temp;Humidity;BMP_temperature;BMP_pressure;BME280_temperature;BME280_humidity;BME280_pressure;Samples;Min_cycle;Max_cycle;Signal;HPM_P1;HPM_P2
2022/02/04 00:03:59;;;;;;;34.33;19.00;;;;;;;4.81;87.49;100172.25;1678069;84;21012;-73
2022/02/04 00:05:33;;;;;;;81.17;33.53;;;;;;;4.81;87.50;100172.73;1673801;85;21015;-73
2022/02/04 00:21:20;;;;;;;31.17;13.95;;;;;;;4.85;87.53;100164.89;1676063;85;21520;-73
2022/02/04 00:23:25;;;;;;;30.70;12.43;;;;;;;4.87;87.56;100162.92;1651816;85;21014;-73
2022/02/04 00:26:53;;;;;;;26.17;13.15;;;;;;;4.88;87.60;100165.92;1688864;85;21032;-73
2022/02/04 00:28:53;;;;;;;22.48;13.72;;;;;;;4.85;87.60;100155.16;1665680;83;21109;-73
2022/02/04 00:33:34;;;;;;;28.73;13.65;;;;;;;4.84;87.62;100159.25;1685732;84;21106;-73
2022/02/04 00:36:08;;;;;;;26.15;14.07;;;;;;;4.83;87.63;100161.53;1684314;84;20995;-73
2022/02/04 00:38:35;;;;;;;23.92;12.43;;;;;;;4.81;87.64;100156.41;1684468;85;21079;-73
2022/02/04 00:41:01;;;;;;;25.40;12.43;;;;;;;4.82;87.63;100154.60;1682072;85;21026;-72
2022/02/04 00:43:22;;;;;;;25.23;13.75;;;;;;;4.82;87.63;100153.28;1683759;83;21038;-72
2022/02/04 00:46:04;;;;;;;39.75;20.57;;;;;;;4.82;87.65;100151.96;1679667;85;21128;-72
2022/02/04 00:50:58;;;;;;;36.23;15.25;;;;;;;4.85;87.66;100151.68;1655549;86;21353;-72
2022/02/04 00:53:29;;;;;;;30.62;13.58;;;;;;;4.85;87.65;100148.55;1655741;86;21514;-72
2022/02/04 00:56:06;;;;;;;31.95;14.90;;;;;;;4.88;87.69;100150.91;1644705;87;21362;-73
2022/02/04 01:28:07;;;;;;;54.38;24.15;;;;;;;4.82;87.76;100112.34;1655564;85;21033;-72
2022/02/04 01:30:35;;;;;;;38.23;18.10;;;;;;;4.80;87.76;100105.02;1645273;87;21308;-72
2022/02/04 01:33:03;;;;;;;29.07;14.50;;;;;;;4.78;87.79;100113.59;1644931;86;21013;-73
2022/02/04 01:35:29;;;;;;;29.82;15.55;;;;;;;4.74;87.80;100106.91;1642999;87;21766;-72
2022/02/04 01:37:55;;;;;;;29.48;16.30;;;;;;;4.74;87.82;100106.91;1643151;87;21059;-72
2022/02/04 01:40:21;;;;;;;27.52;14.78;;;;;;;4.75;87.86;100108.59;1640966;87;21067;-73
2022/02/04 01:42:47;;;;;;;23.65;13.45;;;;;;;4.73;87.84;100098.63;1643629;87;21097;-72
2022/02/04 01:45:13;;;;;;;28.55;14.68;;;;;;;4.73;87.87;100099.95;1655719;86;21011;-72
2022/02/04 01:47:41;;;;;;;23.35;13.70;;;;;;;4.71;87.85;100091.34;1661976;86;21014;-72
2022/02/04 01:50:08;;;;;;;22.25;12.50;;;;;;;4.71;87.86;100093.98;1671069;85;21046;-72
2022/02/04 01:52:35;;;;;;;21.93;12.98;;;;;;;4.72;87.86;100094.31;1656501;85;21045;-72
2022/02/04 01:55:00;;;;;;;23.55;13.20;;;;;;;4.73;87.87;100081.46;1654087;86;21625;-72
2022/02/04 01:57:26;;;;;;;24.30;13.35;;;;;;;4.75;87.88;100085.62;1661335;86;21012;-72
2022/02/04 01:59:52;;;;;;;19.87;11.90;;;;;;;4.78;87.91;100087.17;1622874;87;20946;-72
2022/02/04 02:02:18;;;;;;;20.92;12.50;;;;;;;4.79;87.90;100087.49;1665125;86;21059;-72
2022/02/04 02:04:44;;;;;;;21.48;13.00;;;;;;;4.80;87.91;100085.20;1622996;87;21144;-72
2022/02/04 02:07:17;;;;;;;24.90;13.28;;;;;;;4.84;87.96;100087.44;1662977;86;21022;-72
2022/02/04 02:12:19;;;;;;;33.48;17.45;;;;;;;4.84;87.94;100078.67;1667074;86;21023;-73
2022/02/04 02:14:47;;;;;;;31.70;14.15;;;;;;;4.84;88.00;100079.99;1650929;86;21005;-72
2022/02/04 02:34:23;;;;;;;18.40;12.65;;;;;;;4.83;88.07;100083.59;1661635;86;21116;-72
2022/02/04 02:44:32;;;;;;;22.77;13.83;;;;;;;4.86;88.10;100074.91;1677446;85;21099;-72
2022/02/04 02:47:10;;;;;;;31.68;14.38;;;;;;;4.91;88.12;100076.65;1672688;84;21488;-72
2022/02/04 02:49:52;;;;;;;30.57;17.10;;;;;;;4.92;88.16;100078.81;1650109;86;21117;-73
2022/02/04 02:52:11;;;;;;;33.38;18.98;;;;;;;4.93;88.18;100072.53;1625415;86;21114;-73
2022/02/04 02:54:41;;;;;;;33.35;17.42;;;;;;;4.94;88.19;100068.92;1657804;86;21771;-73
2022/02/04 03:00:06;;;;;;;24.87;15.40;;;;;;;4.91;88.23;100061.28;1677980;85;21452;-73
2022/02/04 03:02:23;;;;;;;24.07;14.63;;;;;;;4.91;88.23;100061.28;1675842;85;21018;-72
2022/02/04 03:04:49;;;;;;;20.72;14.07;;;;;;;4.91;88.25;100059.48;1677719;85;21018;-72
2022/02/04 03:07:15;;;;;;;20.12;13.58;;;;;;;4.90;88.27;100056.96;1676334;85;20972;-72
2022/02/04 03:09:41;;;;;;;20.92;13.25;;;;;;;4.92;88.29;100047.11;1655250;86;21053;-72
2022/02/04 03:12:09;;;;;;;19.32;12.93;;;;;;;4.92;88.29;100053.70;1655730;86;21162;-72
2022/02/04 03:14:35;;;;;;;23.47;12.85;;;;;;;4.94;88.29;100045.14;1655174;86;21047;-72
2022/02/04 03:17:02;;;;;;;19.82;13.15;;;;;;;4.97;88.30;100050.13;1676441;85;20980;-73
2022/02/04 03:19:28;;;;;;;19.02;11.75;;;;;;;4.98;88.33;100057.09;1654474;86;21023;-73
2022/02/04 03:22:01;;;;;;;20.10;13.80;;;;;;;4.97;88.34;100057.58;1676238;85;21019;-73
2022/02/04 03:24:26;;;;;;;30.05;16.30;;;;;;;4.93;88.35;100055.35;1675145;85;21094;-73
2022/02/04 03:26:58;;;;;;;27.20;14.95;;;;;;;4.91;88.35;100055.99;1654531;86;21042;-73
2022/02/04 03:29:25;;;;;;;21.07;13.30;;;;;;;4.90;88.38;100059.60;1654600;86;21027;-73
2022/02/04 03:31:51;;;;;;;22.20;13.15;;;;;;;4.90;88.40;100060.92;1654590;85;21058;-72
2022/02/04 03:34:14;;;;;;;19.42;12.23;;;;;;;4.89;88.41;100057.96;1634331;85;21051;-72
2022/02/04 03:36:40;;;;;;;24.85;12.00;;;;;;;4.88;88.42;100065.53;1667402;85;21130;-72
2022/02/04 03:39:06;;;;;;;21.48;11.60;;;;;;;4.85;88.43;100069.78;1645117;87;21039;-72
2022/02/04 03:41:32;;;;;;;19.40;11.88;;;;;;;4.86;88.46;100074.06;1667147;86;21058;-72
2022/02/04 03:43:58;;;;;;;17.82;11.85;;;;;;;4.86;88.46;100076.70;1645210;87;21012;-72
2022/02/04 03:46:24;;;;;;;17.35;11.03;;;;;;;4.88;88.47;100077.42;1667157;85;21527;-72
2022/02/04 03:48:50;;;;;;;18.02;11.90;;;;;;;4.89;88.47;100077.77;1667272;85;21560;-72
2022/02/04 03:51:16;;;;;;;22.70;12.78;;;;;;;4.91;88.50;100077.13;1666915;86;21528;-72
2022/02/04 03:53:42;;;;;;;18.10;11.50;;;;;;;4.91;88.49;100076.65;1666761;86;21019;-73
2022/02/04 03:56:08;;;;;;;24.27;13.38;;;;;;;4.92;88.53;100073.52;1666896;86;21080;-73
2022/02/04 03:58:37;;;;;;;22.22;13.58;;;;;;;4.93;88.55;100073.84;1666934;86;21071;-72
2022/02/04 04:01:03;;;;;;;21.50;12.50;;;;;;;4.95;88.57;100071.91;1646426;87;21899;-73
2022/02/04 04:03:30;;;;;;;22.20;14.30;;;;;;;4.96;88.57;100072.27;1646683;87;21020;-73
2022/02/04 04:05:56;;;;;;;24.87;13.70;;;;;;;4.91;88.57;100071.84;1646474;87;21067;-72
2022/02/04 04:08:22;;;;;;;23.95;12.53;;;;;;;4.90;88.58;100072.81;1646820;87;20999;-73
2022/02/04 04:10:50;;;;;;;19.50;12.30;;;;;;;4.85;88.57;100071.94;1646520;87;21028;-72
2022/02/04 04:13:16;;;;;;;20.48;11.08;;;;;;;4.83;88.61;100074.35;1645168;87;21221;-73
2022/02/04 04:15:42;;;;;;;18.40;11.63;;;;;;;4.82;88.63;100076.16;1645132;87;21083;-72
2022/02/04 04:18:12;;;;;;;16.82;10.88;;;;;;;4.82;88.63;100064.78;1667079;86;21083;-72
2022/02/04 04:20:36;;;;;;;16.02;10.20;;;;;;;4.83;88.62;100065.11;1667810;85;21067;-72
2022/02/04 04:23:02;;;;;;;18.32;10.63;;;;;;;4.83;88.62;100058.50;1668462;86;21052;-73
2022/02/04 04:25:29;;;;;;;19.32;10.68;;;;;;;4.84;88.63;100056.22;1668527;86;21158;-73
2022/02/04 04:27:55;;;;;;;17.85;10.93;;;;;;;4.83;88.63;100053.22;1668065;84;21580;-72
2022/02/04 04:30:23;;;;;;;16.07;10.68;;;;;;;4.84;88.65;100049.61;1668439;86;21701;-72
2022/02/04 04:32:51;;;;;;;20.15;11.53;;;;;;;4.86;88.66;100048.97;1646645;87;21023;-72
2022/02/04 04:35:18;;;;;;;20.92;10.23;;;;;;;4.88;88.66;100048.36;1652266;86;21070;-72
2022/02/04 04:37:49;;;;;;;20.00;11.43;;;;;;;4.87;88.68;100044.04;1653029;86;21843;-72
2022/02/04 04:40:36;;;;;;;18.85;11.53;;;;;;;4.85;88.71;100051.29;1651744;86;21023;-73
2022/02/04 04:43:05;;;;;;;20.35;11.90;;;;;;;4.83;88.72;100051.90;1650887;86;21411;-73
2022/02/04 04:45:49;;;;;;;15.50;10.18;;;;;;;4.81;88.73;100044.62;1651914;86;21022;-73
2022/02/04 05:26:29;;;;;;;19.82;11.55;;;;;;;4.71;88.89;100053.89;1660939;86;21058;-73
2022/02/04 05:28:57;;;;;;;21.57;12.82;;;;;;;4.72;88.89;100054.69;1660718;85;21519;-73
2022/02/04 05:31:12;;;;;;;25.60;14.80;;;;;;;4.72;88.91;100063.94;1657548;86;21151;-73
2022/02/04 05:33:38;;;;;;;21.62;12.63;;;;;;;4.72;88.92;100059.97;1659419;85;21018;-73
2022/02/04 05:36:06;;;;;;;23.12;12.88;;;;;;;4.73;88.94;100057.69;1637958;87;21007;-73
2022/02/04 05:38:33;;;;;;;19.52;11.35;;;;;;;4.73;88.94;100068.25;1649730;86;21062;-73
2022/02/04 05:40:59;;;;;;;18.57;11.95;;;;;;;4.74;88.96;100059.36;1649920;87;21538;-73
2022/02/04 05:43:29;;;;;;;19.12;10.85;;;;;;;4.75;88.97;100065.00;1649930;86;21308;-73
2022/02/04 05:45:59;;;;;;;17.27;11.35;;;;;;;4.75;88.97;100064.48;1649339;87;21488;-73
2022/02/04 05:48:22;;;;;;;15.65;11.43;;;;;;;4.76;89.01;100062.69;1648840;86;21142;-72
2022/02/04 05:53:21;;;;;;;21.52;12.07;;;;;;;4.75;89.05;100068.96;1649794;87;21494;-72
2022/02/04 06:01:10;;;;;;;23.98;15.40;;;;;;;4.72;89.09;100070.54;1651323;86;21054;-72
2022/02/04 06:03:43;;;;;;;29.48;17.15;;;;;;;4.70;89.08;100068.54;1648569;85;21519;-72
2022/02/04 06:06:23;;;;;;;24.05;14.50;;;;;;;4.70;89.10;100065.90;1636841;86;21069;-72
2022/02/04 06:08:58;;;;;;;34.43;20.20;;;;;;;4.69;89.10;100072.14;1634579;87;21156;-73
2022/02/04 06:24:37;;;;;;;20.27;11.85;;;;;;;4.67;89.18;100070.98;1601302;89;20998;-73
2022/02/04 06:27:04;;;;;;;20.08;14.93;;;;;;;4.67;89.20;100066.18;1610517;89;21037;-73
2022/02/04 06:29:30;;;;;;;28.73;16.57;;;;;;;4.66;89.23;100075.07;1601498;88;21027;-72
2022/02/04 06:31:57;;;;;;;26.68;16.05;;;;;;;4.66;89.21;100076.39;1610651;89;20942;-72
2022/02/04 06:34:23;;;;;;;26.85;16.95;;;;;;;4.64;89.24;100076.55;1597835;87;21802;-73
2022/02/04 06:36:49;;;;;;;24.90;14.05;;;;;;;4.63;89.25;100076.67;1659107;86;21542;-72
2022/02/04 06:39:15;;;;;;;20.88;14.18;;;;;;;4.63;89.28;100083.28;1659056;86;21038;-72
2022/02/04 06:41:41;;;;;;;21.15;12.55;;;;;;;4.63;89.28;100079.31;1659122;86;21062;-72
2022/02/04 06:44:07;;;;;;;27.25;14.65;;;;;;;4.64;89.28;100082.31;1659808;86;20990;-72
2022/02/04 06:46:33;;;;;;;33.30;17.82;;;;;;;4.64;89.30;100084.47;1659728;86;21799;-73
2022/02/04 06:48:59;;;;;;;27.73;15.03;;;;;;;4.64;89.30;100085.79;1662117;84;21542;-72
2022/02/04 06:51:25;;;;;;;23.25;13.80;;;;;;;4.64;89.32;100090.23;1660607;86;21051;-73
2022/02/04 06:53:51;;;;;;;28.20;15.58;;;;;;;4.65;89.35;100090.08;1674571;85;20973;-72
2022/02/04 06:56:17;;;;;;;23.40;14.03;;;;;;;4.66;89.33;100085.63;1664620;85;21011;-73
2022/02/04 06:58:44;;;;;;;22.65;13.55;;;;;;;4.67;89.37;100092.59;1658681;86;21957;-73
2022/02/04 07:01:10;;;;;;;22.45;13.58;;;;;;;4.66;89.39;100089.11;1659710;86;20999;-73
2022/02/04 07:03:36;;;;;;;28.65;14.90;;;;;;;4.66;89.40;100097.52;1659394;86;21375;-73
2022/02/04 07:06:04;;;;;;;25.43;15.28;;;;;;;4.65;89.42;100101.96;1661754;85;21061;-72
2022/02/04 07:08:47;;;;;;;23.15;14.75;;;;;;;4.66;89.44;100109.41;1675423;85;21028;-73
2022/02/04 07:16:30;;;;;;;32.93;23.00;;;;;;;4.65;89.47;100111.20;1674379;85;21068;-73
2022/02/04 07:21:34;;;;;;;25.45;15.55;;;;;;;4.67;89.50;100101.36;1659594;86;21078;-73
2022/02/04 07:24:00;;;;;;;21.42;14.03;;;;;;;4.69;89.52;100103.84;1656334;85;21156;-73
2022/02/04 07:26:30;;;;;;;18.23;12.40;;;;;;;4.71;89.54;100104.55;1661174;86;20993;-73
2022/02/04 07:28:54;;;;;;;25.48;16.45;;;;;;;4.73;89.54;100110.52;1658170;85;21052;-73
2022/02/04 07:31:20;;;;;;;27.20;18.17;;;;;;;4.74;89.55;100106.91;1655653;86;20910;-73
2022/02/04 07:33:51;;;;;;;22.90;15.78;;;;;;;4.76;89.57;100104.95;1659365;84;21054;-73
2022/02/04 07:41:45;;;;;;;28.38;17.82;;;;;;;4.82;89.63;100103.09;1636554;86;21146;-73
2022/02/04 07:44:11;;;;;;;24.47;16.70;;;;;;;4.83;89.64;100108.70;1642326;87;21023;-73
2022/02/04 07:46:37;;;;;;;24.07;15.18;;;;;;;4.84;89.67;100107.73;1642044;87;21006;-73
2022/02/04 07:49:03;;;;;;;21.02;15.15;;;;;;;4.85;89.69;100108.09;1642150;87;21152;-73
2022/02/04 07:51:29;;;;;;;30.05;18.67;;;;;;;4.86;89.68;100113.69;1641760;87;21031;-73
2022/02/04 07:53:55;;;;;;;30.72;17.20;;;;;;;4.89;89.69;100110.28;1653454;86;21592;-72
2022/02/04 07:56:23;;;;;;;26.77;15.85;;;;;;;4.92;89.72;100110.52;1642202;87;21056;-73
2022/02/04 07:58:58;;;;;;;29.23;16.45;;;;;;;4.96;89.73;100110.07;1642246;86;21117;-73
2022/02/04 08:01:27;;;;;;;29.27;15.63;;;;;;;4.98;89.75;100105.98;1647119;86;21190;-73
2022/02/04 08:04:00;;;;;;;26.33;15.63;;;;;;;5.02;89.74;100111.33;1647129;87;21010;-72
2022/02/04 08:06:24;;;;;;;29.23;18.20;;;;;;;5.06;89.74;100107.44;1646338;87;21065;-72
2022/02/04 08:09:00;;;;;;;45.48;28.35;;;;;;;5.08;89.77;100117.36;1647153;87;20998;-72
2022/02/04 08:11:25;;;;;;;87.33;46.45;;;;;;;5.11;89.80;100115.75;1613477;87;21506;-72
2022/02/04 08:14:10;;;;;;;50.73;29.10;;;;;;;5.12;89.79;100106.86;1597335;89;21083;-72
2022/02/04 08:32:39;;;;;;;29.23;17.65;;;;;;;5.23;89.79;100114.63;1642293;87;21087;-73
2022/02/04 08:48:11;;;;;;;25.40;12.85;;;;;;;5.38;89.80;100117.14;1645184;87;21094;-72
2022/02/04 08:50:46;;;;;;;20.00;12.70;;;;;;;5.39;89.81;100120.14;1637943;86;21002;-72
2022/02/04 08:53:30;;;;;;;17.65;11.30;;;;;;;5.44;89.79;100117.91;1647684;85;21286;-72
2022/02/04 08:55:47;;;;;;;17.95;12.55;;;;;;;5.49;89.80;100109.03;1647017;86;21615;-72
2022/02/04 09:00:48;;;;;;;16.07;10.93;;;;;;;5.59;89.79;100114.80;1644933;87;21512;-72
2022/02/04 09:03:15;;;;;;;15.45;10.20;;;;;;;5.62;89.77;100114.50;1645333;86;21007;-72
2022/02/04 09:05:40;;;;;;;28.52;18.15;;;;;;;5.63;89.75;100109.05;1639351;86;21239;-72
2022/02/04 09:08:20;;;;;;;24.07;15.20;;;;;;;5.69;89.77;100115.59;1625346;88;21022;-72
2022/02/04 09:10:37;;;;;;;23.42;13.95;;;;;;;5.73;89.74;100111.67;1624648;88;21062;-72
2022/02/04 09:21:09;;;;;;;23.98;15.43;;;;;;;5.77;89.72;100106.45;1623611;87;21076;-72
2022/02/04 09:23:28;;;;;;;21.95;15.28;;;;;;;5.78;89.70;100119.99;1627389;88;21058;-73
2022/02/04 09:25:54;;;;;;;18.73;12.95;;;;;;;5.80;89.68;100112.27;1646439;87;21023;-72
2022/02/04 09:28:21;;;;;;;23.38;13.78;;;;;;;5.83;89.67;100119.08;1646088;87;21027;-72
2022/02/04 09:30:46;;;;;;;21.87;13.83;;;;;;;5.83;89.62;100123.05;1645133;86;21083;-73
2022/02/04 09:33:12;;;;;;;23.87;14.90;;;;;;;5.80;89.61;100124.19;1645574;87;21007;-72
2022/02/04 09:35:39;;;;;;;26.55;16.57;;;;;;;5.79;89.59;100124.31;1639902;86;21041;-72
2022/02/04 09:38:06;;;;;;;29.15;17.25;;;;;;;5.77;89.57;100128.94;1636394;87;21420;-73
2022/02/04 09:40:32;;;;;;;24.82;15.68;;;;;;;5.77;89.56;100124.97;1637244;87;22078;-73
2022/02/04 09:42:58;;;;;;;25.17;15.85;;;;;;;5.80;89.55;100129.47;1641801;87;21919;-73
2022/02/04 09:45:26;;;;;;;23.12;13.38;;;;;;;5.79;89.54;100127.80;1615784;88;21632;-73
2022/02/04 09:47:59;;;;;;;20.23;13.65;;;;;;;5.79;89.52;100134.90;1615860;88;21039;-73
2022/02/04 09:50:27;;;;;;;21.97;14.55;;;;;;;5.79;89.49;100130.93;1631942;87;21087;-73
2022/02/04 10:13:37;;;;;;;31.27;19.25;;;;;;;5.82;89.31;100118.72;1642080;87;21418;-73
2022/02/04 10:18:45;;;;;;;32.33;20.17;;;;;;;5.94;89.28;100113.62;1630711;88;21071;-73
2022/02/04 10:21:09;;;;;;;26.55;17.67;;;;;;;5.99;89.29;100112.67;1639736;87;21034;-73
2022/02/04 10:23:57;;;;;;;31.05;19.10;;;;;;;5.99;89.30;100109.55;1630958;88;21116;-73
2022/02/04 10:26:24;;;;;;;25.77;18.37;;;;;;;6.00;89.28;100109.90;1588918;89;21035;-71
2022/02/04 10:28:50;;;;;;;34.30;19.80;;;;;;;6.01;89.23;100100.15;1579530;89;21068;-72
2022/02/04 10:31:27;;;;;;;26.55;18.50;;;;;;;5.99;89.24;100099.45;1652057;86;21047;-72
2022/02/04 10:34:13;;;;;;;33.92;21.05;;;;;;;5.96;89.21;100097.94;1674364;85;21535;-72
2022/02/04 10:36:58;;;;;;;21.07;14.40;;;;;;;5.96;89.18;100092.64;1674247;85;21060;-72
2022/02/04 10:39:41;;;;;;;23.92;14.98;;;;;;;5.94;89.16;100097.75;1684494;85;21560;-71
2022/02/04 10:51:26;;;;;;;18.15;11.85;;;;;;;5.94;89.04;100077.91;1677244;85;21235;-71
2022/02/04 10:56:13;;;;;;;18.73;13.13;;;;;;;5.94;89.00;100071.28;1682433;85;21078;-71
2022/02/04 11:01:30;;;;;;;42.78;22.65;;;;;;;5.99;88.96;100067.69;1656694;85;21031;-72
2022/02/04 11:03:52;;;;;;;34.53;19.85;;;;;;;6.10;88.97;100067.97;1676588;85;21718;-72
2022/02/04 11:09:02;;;;;;;29.92;19.52;;;;;;;6.20;88.93;100048.88;1650414;86;21491;-72
2022/02/04 11:51:46;;;;;;;11.40;8.55;;;;;;;6.78;88.44;100020.08;1638846;86;21028;-71
2022/02/04 11:54:33;;;;;;;12.90;8.90;;;;;;;6.79;88.37;100014.61;1631183;86;21044;-72
2022/02/04 11:57:07;;;;;;;11.60;8.58;;;;;;;6.83;88.32;100006.69;1632297;86;21012;-72
2022/02/04 11:59:47;;;;;;;16.97;10.40;;;;;;;6.81;88.25;100011.33;1632243;87;21176;-71
2022/02/04 12:02:33;;;;;;;13.20;9.68;;;;;;;6.80;88.20;100008.82;1621261;86;21633;-71
2022/02/04 12:05:15;;;;;;;12.50;7.90;;;;;;;6.82;88.16;100008.19;1624967;87;21042;-71
2022/02/04 12:08:12;;;;;;;11.30;7.47;;;;;;;6.85;88.08;100002.57;1621422;86;22269;-72
2022/02/04 12:10:41;;;;;;;13.98;8.60;;;;;;;6.83;88.02;99999.23;1613842;85;21065;-71
2022/02/04 12:13:10;;;;;;;11.33;8.05;;;;;;;6.81;87.90;100007.35;1622377;87;21026;-71
2022/02/04 12:15:57;;;;;;;10.63;6.43;;;;;;;6.81;87.83;99995.91;1651466;86;21065;-71
2022/02/04 12:18:41;;;;;;;12.47;8.08;;;;;;;6.84;87.79;99988.48;1651061;86;21056;-72
2022/02/04 12:21:07;;;;;;;10.82;7.67;;;;;;;6.89;87.73;99982.72;1635066;87;21089;-71
2022/02/04 12:23:43;;;;;;;12.53;7.85;;;;;;;6.91;87.67;99988.69;1638609;87;21065;-71
2022/02/04 12:26:23;;;;;;;10.28;7.12;;;;;;;6.90;87.65;99990.50;1638134;87;21017;-71
2022/02/04 12:29:01;;;;;;;13.35;9.03;;;;;;;6.86;87.59;99987.02;1610528;87;21086;-72
2022/02/04 12:31:30;;;;;;;13.03;7.60;;;;;;;6.86;87.53;99987.02;1635320;86;21049;-71
2022/02/04 12:34:11;;;;;;;12.60;6.83;;;;;;;6.85;87.49;99988.00;1631088;87;21526;-71
2022/02/04 12:36:47;;;;;;;12.03;7.28;;;;;;;6.80;87.40;99982.31;1623671;85;21023;-71
2022/02/04 12:39:18;;;;;;;15.58;8.48;;;;;;;6.78;87.32;99976.36;1637170;85;21804;-71
2022/02/04 12:41:56;;;;;;;37.60;18.30;;;;;;;6.79;87.30;99975.38;1659040;84;21527;-71
2022/02/04 12:44:28;;;;;;;29.72;13.22;;;;;;;6.79;87.21;99979.36;1661421;84;21558;-71
2022/02/04 12:47:00;;;;;;;27.10;15.30;;;;;;;6.80;87.11;99973.05;1632556;86;21665;-71
2022/02/04 12:49:27;;;;;;;15.15;9.43;;;;;;;6.82;87.06;99971.09;1648461;84;21127;-71
2022/02/04 12:52:07;;;;;;;12.05;7.70;;;;;;;6.84;86.99;99967.77;1662130;84;21978;-71
2022/02/04 12:54:46;;;;;;;18.25;11.50;;;;;;;6.84;86.96;99974.40;1664324;84;21496;-71
2022/02/04 13:08:21;;;;;;;8.98;5.30;;;;;;;6.77;86.72;99968.89;1646395;87;21083;-71
2022/02/04 13:11:04;;;;;;;8.70;5.35;;;;;;;6.74;86.64;99957.78;1646673;87;21047;-71
2022/02/04 13:13:39;;;;;;;15.68;5.95;;;;;;;6.72;86.55;99947.32;1631955;87;21898;-71
2022/02/04 13:16:00;;;;;;;10.10;5.80;;;;;;;6.76;86.51;99946.52;1635799;85;21472;-71
2022/02/04 13:18:27;;;;;;;12.13;7.05;;;;;;;6.80;86.49;99938.59;1640596;85;21699;-71
2022/02/04 13:20:55;;;;;;;11.10;6.35;;;;;;;6.82;86.44;99936.64;1631693;85;21039;-71
2022/02/04 13:23:24;;;;;;;11.93;6.65;;;;;;;6.85;86.41;99925.23;1637978;85;21004;-71
2022/02/04 13:25:52;;;;;;;12.28;7.30;;;;;;;6.85;86.32;99920.41;1646486;87;21032;-72
2022/02/04 13:28:22;;;;;;;9.50;6.25;;;;;;;6.84;86.23;99913.44;1646483;85;21612;-72
2022/02/04 13:31:04;;;;;;;12.35;6.60;;;;;;;6.82;86.18;99917.59;1631181;87;21525;-71
2022/02/04 13:33:35;;;;;;;10.28;5.10;;;;;;;6.81;86.13;99913.77;1646526;87;21008;-72
2022/02/04 13:36:37;;;;;;;11.80;5.95;;;;;;;6.81;86.07;99915.09;1636281;87;21047;-72
2022/02/04 13:38:48;;;;;;;11.43;6.95;;;;;;;6.78;86.02;99908.30;1608290;88;21070;-71
2022/02/04 13:41:20;;;;;;;9.90;4.45;;;;;;;6.81;85.97;99909.30;1641135;87;21071;-71
2022/02/04 13:44:11;;;;;;;12.05;7.72;;;;;;;6.82;85.92;99896.88;1645345;87;21517;-72
2022/02/04 13:46:34;;;;;;;20.02;8.08;;;;;;;6.84;85.85;99892.23;1643602;87;21019;-72
2022/02/04 13:49:10;;;;;;;13.00;7.83;;;;;;;6.89;85.80;99895.26;1645314;87;21027;-71
2022/02/04 13:51:48;;;;;;;13.78;8.58;;;;;;;6.89;85.76;99896.59;1644591;87;21058;-71
2022/02/04 13:54:22;;;;;;;13.28;6.12;;;;;;;6.90;85.73;99890.27;1645758;87;21015;-71
2022/02/04 13:56:53;;;;;;;9.90;6.75;;;;;;;6.89;85.63;99888.63;1645790;87;21181;-71
2022/02/04 13:59:23;;;;;;;11.60;5.30;;;;;;;6.86;85.49;99893.73;1660064;86;21471;-71
2022/02/04 14:01:53;;;;;;;8.50;5.30;;;;;;;6.88;85.46;99890.94;1637705;85;21021;-71
2022/02/04 14:04:10;;;;;;;17.15;9.78;;;;;;;6.90;85.39;99886.30;1625256;87;21076;-71
2022/02/04 14:06:38;;;;;;;6.67;4.65;;;;;;;6.93;85.34;99887.33;1636427;86;21089;-72
2022/02/04 14:09:18;;;;;;;8.15;4.70;;;;;;;6.91;85.25;99894.59;1665954;86;21754;-71
2022/02/04 14:11:42;;;;;;;12.53;6.72;;;;;;;6.88;85.17;99887.80;1650976;86;21077;-71
2022/02/04 14:14:21;;;;;;;23.47;13.22;;;;;;;6.87;85.10;99891.92;1654731;86;21067;-71
2022/02/04 14:16:56;;;;;;;13.90;8.50;;;;;;;6.85;85.03;99893.91;1668538;86;21489;-71
2022/02/04 14:19:28;;;;;;;16.37;11.35;;;;;;;6.80;84.96;99896.19;1641338;87;21085;-71
2022/02/04 14:21:53;;;;;;;12.53;7.25;;;;;;;6.78;84.92;99892.88;1624368;87;22044;-71
2022/02/04 14:24:21;;;;;;;11.85;5.62;;;;;;;6.74;84.83;99890.20;1653635;86;21015;-71
2022/02/04 14:26:52;;;;;;;18.82;11.40;;;;;;;6.68;84.75;99882.90;1682682;85;21041;-70
2022/02/04 14:29:28;;;;;;;9.08;5.10;;;;;;;6.66;84.66;99883.53;1672115;83;21020;-71
2022/02/04 14:37:54;;;;;;;24.63;10.58;;;;;;;6.63;84.50;99873.25;1632289;86;21033;-71
2022/02/04 15:33:17;;;;;;;14.80;6.53;;;;;;;6.28;83.77;99814.14;1797750;78;21858;-71
2022/02/04 15:35:43;;;;;;;33.58;11.30;;;;;;;6.23;83.73;99812.44;1758088;81;21623;-71
2022/02/04 15:38:10;;;;;;;47.73;16.52;;;;;;;6.23;83.71;99805.82;1758230;81;21328;-70
2022/02/04 15:40:36;;;;;;;22.90;12.63;;;;;;;6.23;83.72;99804.50;1758001;81;20959;-70
2022/02/04 15:43:04;;;;;;;26.15;11.53;;;;;;;6.25;83.72;99795.92;1758122;81;21398;-71
2022/02/04 15:50:57;;;;;;;37.03;17.00;;;;;;;6.21;83.66;99785.30;1758145;81;21953;-70
2022/02/04 15:56:13;;;;;;;17.60;7.17;;;;;;;6.15;83.63;99774.03;1758133;81;21012;-71
2022/02/04 15:58:40;;;;;;;23.75;9.05;;;;;;;6.11;83.56;99774.00;1755482;81;21614;-70
2022/02/04 16:01:11;;;;;;;26.45;11.88;;;;;;;6.08;83.55;99780.10;1757015;81;20999;-70
2022/02/04 16:06:06;;;;;;;34.30;16.07;;;;;;;6.04;83.49;99784.88;1758195;81;21004;-71
2022/02/04 16:08:32;;;;;;;19.48;8.85;;;;;;;6.03;83.45;99784.53;1758174;81;21520;-70
2022/02/04 16:11:15;;;;;;;28.25;13.45;;;;;;;6.03;83.46;99788.50;1758071;81;21086;-70
2022/02/04 16:13:43;;;;;;;48.92;23.62;;;;;;;6.04;83.45;99784.88;1756200;81;20996;-70
2022/02/04 16:18:59;;;;;;;55.48;22.75;;;;;;;6.06;83.47;99782.89;1757948;81;21063;-71
2022/02/04 16:21:24;;;;;;;78.67;33.30;;;;;;;6.07;83.48;99779.27;1753663;81;21055;-71
2022/02/04 16:28:54;;;;;;;70.45;32.23;;;;;;;6.03;83.47;99768.16;1754575;80;21182;-71
2022/02/04 16:31:21;;;;;;;82.12;37.28;;;;;;;6.01;83.47;99765.34;1747243;79;20874;-71
2022/02/04 16:33:48;;;;;;;58.92;28.07;;;;;;;5.99;83.44;99763.33;1735262;81;21038;-71
2022/02/04 16:36:16;;;;;;;39.55;20.68;;;;;;;5.96;83.41;99762.32;1742018;81;20998;-71
2022/02/04 16:38:46;;;;;;;29.32;12.25;;;;;;;5.93;83.40;99758.67;1750653;81;21053;-71
2022/02/04 16:41:14;;;;;;;32.55;13.70;;;;;;;5.91;83.36;99753.52;1759998;81;22012;-70
2022/02/04 16:43:40;;;;;;;41.08;17.70;;;;;;;5.90;83.36;99754.53;1759189;81;21007;-70
2022/02/04 16:46:06;;;;;;;45.05;17.70;;;;;;;5.91;83.35;99751.39;1758851;81;21027;-71
2022/02/04 16:48:34;;;;;;;47.38;19.23;;;;;;;5.91;83.35;99743.45;1759210;81;21006;-71
2022/02/04 16:51:00;;;;;;;62.53;22.25;;;;;;;5.90;83.35;99750.55;1759076;81;21026;-71
2022/02/04 16:53:29;;;;;;;62.40;22.15;;;;;;;5.92;83.33;99741.95;1759170;81;21131;-71
2022/02/04 16:55:55;;;;;;;63.42;27.95;;;;;;;5.94;83.32;99736.52;1758941;81;21498;-71
2022/02/04 16:58:21;;;;;;;67.37;31.17;;;;;;;5.94;83.31;99729.91;1759041;81;21510;-70
2022/02/04 17:00:47;;;;;;;37.03;15.43;;;;;;;5.95;83.32;99739.48;1758659;81;21011;-70
2022/02/04 17:03:13;;;;;;;32.00;14.15;;;;;;;5.93;83.31;99740.14;1759061;81;21731;-71
2022/02/04 17:05:51;;;;;;;49.90;19.30;;;;;;;5.91;83.30;99737.64;1759126;81;21141;-71
2022/02/04 17:08:09;;;;;;;54.18;19.70;;;;;;;5.90;83.28;99733.84;1758549;81;21002;-71
2022/02/04 17:10:41;;;;;;;15.68;7.90;;;;;;;5.88;83.24;99729.19;1759191;81;21110;-71
2022/02/04 17:13:04;;;;;;;56.85;17.82;;;;;;;5.87;83.21;99731.52;1758417;81;21062;-71
2022/02/04 17:15:33;;;;;;;57.10;17.00;;;;;;;5.85;83.16;99729.47;1759161;81;21050;-70
2022/02/04 17:18:04;;;;;;;71.80;25.77;;;;;;;5.83;83.13;99720.88;1759128;81;21153;-71
2022/02/04 17:20:30;;;;;;;108.85;45.23;;;;;;;5.82;83.09;99721.84;1758828;81;21081;-71
2022/02/04 17:22:57;;;;;;;203.07;97.22;;;;;;;5.81;83.06;99722.34;1759038;81;21081;-70
2022/02/04 17:25:27;;;;;;;162.27;68.17;;;;;;;5.82;83.04;99717.88;1759413;81;21019;-70
2022/02/04 17:27:55;;;;;;;186.52;75.78;;;;;;;5.83;83.02;99716.41;1759241;80;21564;-70
2022/02/04 17:30:21;;;;;;;584.87;298.70;;;;;;;5.83;82.99;99712.94;1758185;81;21422;-71
2022/02/04 17:32:47;;;;;;;236.62;108.83;;;;;;;5.83;82.96;99715.58;1757836;81;21058;-70